createdAt,value
2023-06-20T00:00:10.294Z,9.10
2023-06-20T00:02:38.098Z,9.00
2023-06-20T00:05:06.507Z,9.60
2023-06-20T00:07:34.639Z,9.10
2023-06-20T00:10:02.247Z,9.20
2023-06-20T00:12:29.826Z,9.40
2023-06-20T00:14:57.983Z,10.20
2023-06-20T00:17:27.010Z,9.80
2023-06-20T00:19:54.760Z,9.10
2023-06-20T00:22:23.393Z,9.60
2023-06-20T00:24:50.914Z,9.00
2023-06-20T00:27:18.675Z,10.10
2023-06-20T00:29:46.233Z,9.40
2023-06-20T00:32:13.808Z,9.00
2023-06-20T00:34:41.422Z,9.20
2023-06-20T00:37:09.064Z,9.40
2023-06-20T00:39:36.844Z,9.50
2023-06-20T00:42:05.601Z,8.80
2023-06-20T00:44:33.146Z,9.40
2023-06-20T00:47:00.832Z,8.70
2023-06-20T00:49:28.455Z,8.20
2023-06-20T00:51:56.015Z,9.20
2023-06-20T00:54:23.543Z,9.80
2023-06-20T00:56:51.742Z,9.50
2023-06-20T00:59:19.283Z,9.30
2023-06-20T01:01:48.028Z,9.10
2023-06-20T01:04:15.587Z,10.10
2023-06-20T01:06:52.081Z,10.10
2023-06-20T01:09:30.189Z,10.30
2023-06-20T01:12:12.722Z,9.60
2023-06-20T01:14:58.451Z,10.90
2023-06-20T01:17:51.577Z,11.20
2023-06-20T01:20:28.597Z,14.60
2023-06-20T01:23:05.654Z,13.70
2023-06-20T01:26:03.781Z,13.00
2023-06-20T01:28:51.629Z,12.80
2023-06-20T01:31:37.656Z,13.20
2023-06-20T01:34:10.599Z,12.80
2023-06-20T01:36:39.235Z,12.50
2023-06-20T01:39:15.900Z,12.30
2023-06-20T01:41:49.175Z,12.40
2023-06-20T01:44:17.501Z,11.70
2023-06-20T01:46:46.025Z,11.60
2023-06-20T01:49:13.518Z,11.60
2023-06-20T01:51:41.111Z,11.40
2023-06-20T01:54:09.166Z,10.80
2023-06-20T01:56:37.718Z,11.00
2023-06-20T01:59:06.541Z,10.90
2023-06-20T02:01:34.094Z,11.40
2023-06-20T02:04:02.403Z,11.70
2023-06-20T02:06:30.452Z,11.60
2023-06-20T02:08:58.028Z,11.50
2023-06-20T02:11:26.487Z,10.80
2023-06-20T02:13:54.052Z,10.70
2023-06-20T02:16:23.025Z,11.10
2023-06-20T02:18:50.598Z,11.60
2023-06-20T02:21:24.218Z,12.40
2023-06-20T02:23:52.105Z,11.50
2023-06-20T02:26:19.958Z,11.00
2023-06-20T02:28:49.834Z,11.70
2023-06-20T02:31:21.896Z,11.60
2023-06-20T02:33:50.204Z,11.50
2023-06-20T02:36:18.844Z,10.90
2023-06-20T02:38:46.311Z,12.30
2023-06-20T02:41:13.918Z,11.50
2023-06-20T02:43:41.511Z,11.00
2023-06-20T02:46:19.469Z,11.60
2023-06-20T02:49:10.710Z,11.70
2023-06-20T02:51:41.221Z,12.10
2023-06-20T02:54:21.562Z,11.90
2023-06-20T02:56:54.488Z,12.10
2023-06-20T02:59:22.893Z,11.80
2023-06-20T03:01:51.257Z,12.10
2023-06-20T03:04:19.615Z,11.50
2023-06-20T03:06:47.123Z,11.90
2023-06-20T03:09:14.540Z,11.50
2023-06-20T03:11:42.083Z,11.90
2023-06-20T03:14:15.427Z,12.10
2023-06-20T03:16:43.411Z,11.80
2023-06-20T03:19:11.632Z,12.20
2023-06-20T03:21:42.392Z,11.80
2023-06-20T03:24:10.530Z,11.80
2023-06-20T03:26:39.544Z,12.00
2023-06-20T03:29:07.329Z,12.50
2023-06-20T03:31:35.525Z,11.40
2023-06-20T03:34:08.836Z,12.50
2023-06-20T03:36:39.453Z,12.40
2023-06-20T03:39:08.757Z,11.80
2023-06-20T03:41:38.457Z,12.10
2023-06-20T03:44:09.950Z,12.80
2023-06-20T03:46:37.524Z,12.20
2023-06-20T03:49:05.893Z,12.40
2023-06-20T03:51:33.458Z,13.10
2023-06-20T03:54:01.153Z,13.00
2023-06-20T03:56:29.023Z,12.10
2023-06-20T03:58:56.620Z,12.10
2023-06-20T04:01:25.689Z,12.00
2023-06-20T04:03:55.755Z,12.40
2023-06-20T04:06:31.407Z,12.00
2023-06-20T04:08:59.923Z,12.60
2023-06-20T04:11:27.436Z,13.00
2023-06-20T04:13:55.918Z,12.10
2023-06-20T04:16:23.508Z,12.70
2023-06-20T04:18:51.030Z,12.20
2023-06-20T04:21:19.497Z,11.50
2023-06-20T04:23:47.197Z,11.30
2023-06-20T04:26:14.773Z,11.80
2023-06-20T04:28:43.063Z,12.70
2023-06-20T04:31:12.828Z,13.50
2023-06-20T04:33:45.881Z,12.90
2023-06-20T04:36:16.692Z,12.40
2023-06-20T04:38:46.197Z,12.10
2023-06-20T04:41:14.591Z,11.90
2023-06-20T04:43:45.950Z,12.70
2023-06-20T04:46:14.133Z,12.30
2023-06-20T04:48:41.677Z,13.30
2023-06-20T04:51:10.462Z,12.50
2023-06-20T04:53:38.234Z,12.30
2023-06-20T04:56:06.588Z,12.40
2023-06-20T04:58:34.103Z,12.30
2023-06-20T05:01:01.781Z,12.10
2023-06-20T05:03:29.349Z,12.00
2023-06-20T05:05:57.454Z,12.10
2023-06-20T05:08:25.109Z,12.10
2023-06-20T05:10:52.594Z,15.50
2023-06-20T05:13:20.157Z,12.70
2023-06-20T05:15:47.891Z,14.90
2023-06-20T05:18:15.354Z,16.00
2023-06-20T05:20:42.949Z,13.70
2023-06-20T05:23:10.609Z,14.80
2023-06-20T05:25:38.327Z,13.20
2023-06-20T05:28:06.878Z,13.30
2023-06-20T05:30:34.629Z,12.20
2023-06-20T05:33:02.505Z,12.30
2023-06-20T05:35:30.136Z,12.50
2023-06-20T05:37:57.762Z,12.90
2023-06-20T05:40:26.148Z,11.50
2023-06-20T05:42:54.232Z,11.80
2023-06-20T05:45:21.734Z,11.70
2023-06-20T05:47:51.201Z,11.60
2023-06-20T05:50:19.734Z,11.60
2023-06-20T05:52:48.149Z,11.40
2023-06-20T05:55:15.742Z,12.00
2023-06-20T05:57:43.183Z,13.20
2023-06-20T06:00:14.245Z,12.20
2023-06-20T06:02:47.937Z,12.70
2023-06-20T06:05:16.641Z,12.10
2023-06-20T06:07:44.304Z,11.70
2023-06-20T06:10:11.924Z,11.10
2023-06-20T06:12:39.585Z,11.50
2023-06-20T06:15:09.146Z,11.10
2023-06-20T06:17:37.164Z,11.30
2023-06-20T06:20:05.837Z,9.70
2023-06-20T06:22:33.662Z,9.80
2023-06-20T06:25:02.481Z,10.10
2023-06-20T06:27:30.028Z,10.10
2023-06-20T06:29:57.527Z,10.20
2023-06-20T06:32:25.112Z,9.40
2023-06-20T06:34:52.580Z,9.80
2023-06-20T06:37:20.172Z,10.10
2023-06-20T06:39:47.876Z,9.30
2023-06-20T06:42:15.506Z,9.90
2023-06-20T06:44:43.119Z,11.10
2023-06-20T06:47:11.930Z,10.30
2023-06-20T06:49:40.669Z,9.50
2023-06-20T06:52:08.668Z,9.50
2023-06-20T06:54:36.492Z,9.70
2023-06-20T06:57:04.342Z,9.40
2023-06-20T06:59:31.927Z,9.50
2023-06-20T07:01:59.920Z,9.30
2023-06-20T07:04:28.613Z,9.40
2023-06-20T07:06:56.227Z,9.20
2023-06-20T07:09:24.530Z,9.00
2023-06-20T07:11:52.118Z,9.80
2023-06-20T07:14:19.803Z,9.50
2023-06-20T07:17:03.942Z,9.30
2023-06-20T07:19:32.547Z,9.50
2023-06-20T07:22:00.148Z,8.80
2023-06-20T07:24:27.943Z,8.90
2023-06-20T07:26:55.691Z,9.20
2023-06-20T07:29:23.407Z,8.80
2023-06-20T07:31:51.358Z,10.00
2023-06-20T07:34:19.105Z,9.40
2023-06-20T07:36:46.966Z,9.60
2023-06-20T07:39:14.925Z,9.60
2023-06-20T07:41:44.760Z,10.10
2023-06-20T07:44:13.368Z,9.30
2023-06-20T07:46:41.157Z,9.70
2023-06-20T07:49:08.923Z,9.00
2023-06-20T07:51:38.222Z,9.50
2023-06-20T07:54:06.026Z,9.00
2023-06-20T07:56:33.881Z,8.90
2023-06-20T07:59:01.570Z,9.80
2023-06-20T08:01:35.155Z,9.40
2023-06-20T08:04:03.865Z,9.50
2023-06-20T08:06:31.766Z,9.10
2023-06-20T08:08:59.592Z,9.60
2023-06-20T08:11:27.977Z,9.40
2023-06-20T08:14:01.011Z,8.20
2023-06-20T08:16:32.519Z,8.50
2023-06-20T08:19:05.272Z,8.10
2023-06-20T08:21:32.978Z,9.30
2023-06-20T08:28:05.712Z,8.60
2023-06-20T08:30:40.299Z,9.40
2023-06-20T08:33:08.482Z,8.60
2023-06-20T08:35:41.990Z,9.50
2023-06-20T08:38:11.626Z,8.70
2023-06-20T08:40:39.119Z,9.10
2023-06-20T08:43:06.940Z,8.80
2023-06-20T08:45:34.737Z,9.00
2023-06-20T08:48:02.551Z,8.30
2023-06-20T08:50:31.303Z,8.60
2023-06-20T08:53:01.889Z,13.10
2023-06-20T08:55:32.767Z,10.90
2023-06-20T08:58:03.693Z,8.90
2023-06-20T09:00:35.466Z,8.60
2023-06-20T09:03:04.951Z,8.30
2023-06-20T09:05:42.464Z,10.80
2023-06-20T09:08:18.965Z,8.90
2023-06-20T09:10:46.770Z,9.50
2023-06-20T09:13:15.035Z,8.70
2023-06-20T09:15:44.491Z,8.40
2023-06-20T09:18:17.391Z,8.10
2023-06-20T09:20:45.514Z,9.80
2023-06-20T09:23:16.069Z,9.60
2023-06-20T09:25:47.513Z,8.80
2023-06-20T09:28:17.599Z,8.50
2023-06-20T09:30:50.335Z,8.60
2023-06-20T09:33:18.881Z,8.50
2023-06-20T09:35:48.823Z,10.50
2023-06-20T09:38:16.518Z,9.00
2023-06-20T09:40:46.859Z,9.40
2023-06-20T09:43:16.162Z,10.20
2023-06-20T09:45:43.969Z,10.20
2023-06-20T09:48:11.868Z,9.60
2023-06-20T09:50:39.611Z,8.50
2023-06-20T09:53:13.714Z,8.10
2023-06-20T09:55:42.836Z,8.40
2023-06-20T09:58:11.175Z,7.60
2023-06-20T10:00:39.718Z,8.40
2023-06-20T10:03:09.691Z,11.60
2023-06-20T10:05:38.930Z,18.10
2023-06-20T10:08:06.670Z,10.70
2023-06-20T10:10:36.246Z,11.30
2023-06-20T10:13:09.580Z,14.50
2023-06-20T10:15:38.310Z,9.40
2023-06-20T10:18:32.660Z,8.20
2023-06-20T10:21:04.375Z,8.70
2023-06-20T10:23:35.319Z,8.80
2023-06-20T10:26:07.175Z,10.10
2023-06-20T10:39:58.672Z,7.30
2023-06-20T10:42:39.735Z,12.00
2023-06-20T10:45:20.524Z,9.80
2023-06-20T10:47:48.817Z,9.00
2023-06-20T10:50:16.633Z,9.50
2023-06-20T10:52:47.600Z,9.20
2023-06-20T10:55:16.101Z,9.50
2023-06-20T10:57:47.201Z,12.00
2023-06-20T11:00:19.322Z,9.40
2023-06-20T11:02:51.720Z,8.40
2023-06-20T11:05:19.389Z,12.70
2023-06-20T11:08:01.000Z,9.00
2023-06-20T11:10:33.368Z,9.30
2023-06-20T11:14:22.802Z,8.90
2023-06-20T11:16:52.456Z,8.30
2023-06-20T11:29:14.246Z,8.20
2023-06-20T11:31:42.366Z,16.50
2023-06-20T11:34:13.527Z,14.40
2023-06-20T11:36:41.929Z,9.40
2023-06-20T11:39:12.696Z,7.50
2023-06-20T11:41:40.457Z,9.50
2023-06-20T11:44:23.079Z,8.30
2023-06-20T11:46:50.861Z,7.80
2023-06-20T11:49:31.913Z,7.30
2023-06-20T11:52:07.112Z,7.90
2023-06-20T11:54:53.501Z,7.70
2023-06-20T11:57:51.081Z,7.50
2023-06-20T12:00:30.112Z,7.70
2023-06-20T12:03:00.326Z,6.90
2023-06-20T12:05:36.443Z,8.10
2023-06-20T12:08:05.125Z,7.20
2023-06-20T12:10:35.659Z,9.20
2023-06-20T12:13:07.291Z,10.70
2023-06-20T12:15:36.195Z,10.80
2023-06-20T12:18:04.153Z,7.90
2023-06-20T12:20:42.422Z,8.80
2023-06-20T12:23:19.847Z,8.80
2023-06-20T12:25:47.994Z,8.40
2023-06-20T12:28:16.981Z,9.00
2023-06-20T12:30:45.572Z,8.20
2023-06-20T12:33:14.996Z,9.00
2023-06-20T12:35:46.779Z,10.10
2023-06-20T12:38:14.667Z,10.20
2023-06-20T12:40:42.427Z,10.20
2023-06-20T12:43:12.051Z,11.00
2023-06-20T12:45:39.619Z,11.00
2023-06-20T12:48:07.623Z,9.90
2023-06-20T12:50:36.357Z,9.20
2023-06-20T12:53:03.969Z,9.10
2023-06-20T12:55:36.222Z,10.50
2023-06-20T12:58:03.985Z,10.70
2023-06-20T13:00:31.948Z,10.50
2023-06-20T13:03:01.104Z,9.90
2023-06-20T13:05:30.202Z,11.00
2023-06-20T13:07:57.862Z,9.50
2023-06-20T13:10:25.939Z,10.70
2023-06-20T13:12:55.542Z,9.90
2023-06-20T13:15:25.975Z,10.00
2023-06-20T13:17:56.333Z,9.80
2023-06-20T13:20:27.978Z,9.40
2023-06-20T13:22:56.928Z,9.90
2023-06-20T13:25:24.601Z,9.70
2023-06-20T13:27:54.540Z,9.90
2023-06-20T13:30:22.359Z,12.50
2023-06-20T13:32:51.701Z,12.10
2023-06-20T13:35:25.457Z,10.50
2023-06-20T13:37:55.556Z,9.00
2023-06-20T13:40:31.865Z,10.10
2023-06-20T13:43:01.199Z,10.40
2023-06-20T13:45:30.833Z,8.90
2023-06-20T13:48:01.908Z,8.30
2023-06-20T13:50:35.341Z,9.50
2023-06-20T13:53:05.758Z,9.50
2023-06-20T13:55:33.817Z,9.60
2023-06-20T13:58:02.634Z,10.50
2023-06-20T14:00:40.950Z,9.10
2023-06-20T14:03:08.822Z,9.00
2023-06-20T14:05:38.019Z,8.20
2023-06-20T14:08:06.247Z,8.40
2023-06-20T14:10:34.974Z,8.90
2023-06-20T14:13:02.925Z,8.80
2023-06-20T14:15:31.733Z,8.20
2023-06-20T14:17:59.944Z,6.70
2023-06-20T14:20:30.205Z,7.00
2023-06-20T14:23:06.880Z,9.70
2023-06-20T14:28:28.153Z,11.00
2023-06-20T14:37:05.423Z,9.90
2023-06-20T15:06:48.173Z,9.50
2023-06-20T15:09:17.278Z,7.50
2023-06-20T15:11:59.708Z,9.60
2023-06-20T15:14:30.138Z,8.70
2023-06-20T15:16:58.398Z,4.50
2023-06-20T15:19:28.612Z,5.30
2023-06-20T15:21:57.391Z,5.60
2023-06-20T15:24:25.318Z,6.40
2023-06-20T15:26:53.019Z,6.90
2023-06-20T15:29:21.650Z,6.90
2023-06-20T15:31:49.308Z,6.00
2023-06-20T15:34:16.825Z,5.80
2023-06-20T15:36:44.451Z,5.80
2023-06-20T15:39:13.070Z,5.60
2023-06-20T15:41:44.932Z,6.20
2023-06-20T15:44:12.491Z,7.00
2023-06-20T15:46:53.125Z,6.60
2023-06-20T15:49:23.491Z,6.70
2023-06-20T15:51:51.339Z,6.40
2023-06-20T15:54:19.657Z,7.10
2023-06-20T15:56:47.346Z,7.60
2023-06-20T15:59:17.736Z,7.40
2023-06-20T16:01:45.461Z,7.10
2023-06-20T16:04:13.152Z,6.50
2023-06-20T21:22:17.479Z,10.90
2023-06-20T21:24:48.376Z,10.30
2023-06-20T21:27:18.027Z,9.90
2023-06-20T21:29:48.920Z,10.30
2023-06-20T21:32:16.589Z,12.10
2023-06-20T21:34:46.223Z,12.80
2023-06-20T21:37:16.189Z,12.40
2023-06-20T21:39:48.855Z,12.40
2023-06-20T21:42:18.319Z,13.70
2023-06-20T21:44:46.458Z,13.90
2023-06-20T21:47:14.452Z,13.10
2023-06-20T21:49:45.398Z,12.90
2023-06-20T21:52:14.916Z,13.30
2023-06-20T21:54:44.398Z,13.30
2023-06-20T21:57:15.687Z,12.70
2023-06-20T21:59:44.237Z,12.90
2023-06-20T22:02:11.993Z,14.30
2023-06-20T22:04:40.726Z,15.80
2023-06-20T22:07:09.718Z,17.30
2023-06-20T22:09:47.431Z,16.60
2023-06-20T22:12:26.067Z,13.10
2023-06-20T22:14:57.652Z,13.80
2023-06-20T22:17:27.093Z,13.40
2023-06-20T22:19:59.190Z,14.70
2023-06-20T22:22:35.516Z,16.30
2023-06-20T22:25:11.509Z,15.50
2023-06-20T22:27:40.884Z,14.70
2023-06-20T22:30:11.776Z,14.60
2023-06-20T22:32:39.796Z,16.00
2023-06-20T22:35:07.923Z,15.30
2023-06-20T22:37:37.264Z,15.30
2023-06-20T22:40:10.086Z,16.00
2023-06-20T22:42:39.983Z,16.60
2023-06-20T22:47:09.663Z,16.30
2023-06-20T22:49:46.330Z,17.30
2023-06-20T22:52:23.876Z,18.00
2023-06-20T22:54:52.169Z,18.30
2023-06-20T22:57:23.781Z,17.80
2023-06-20T22:59:53.262Z,16.10
2023-06-20T23:02:25.258Z,17.80
2023-06-20T23:04:58.056Z,16.70
2023-06-20T23:07:27.151Z,15.80
2023-06-20T23:09:57.532Z,15.40
2023-06-20T23:12:30.022Z,16.30
2023-06-20T23:14:59.139Z,16.30
2023-06-20T23:17:27.142Z,16.60
2023-06-20T23:19:56.418Z,15.70
2023-06-20T23:22:24.307Z,14.80
2023-06-20T23:24:51.721Z,15.40
2023-06-20T23:27:21.226Z,16.50
2023-06-20T23:29:48.434Z,15.10
2023-06-20T23:32:16.271Z,15.60
2023-06-20T23:34:45.710Z,15.90
2023-06-20T23:37:14.837Z,16.30
2023-06-20T23:39:42.631Z,16.20
2023-06-20T23:42:15.716Z,16.60
2023-06-20T23:44:48.477Z,16.40
2023-06-20T23:47:15.877Z,17.00
2023-06-20T23:49:45.105Z,17.00
2023-06-20T23:52:12.735Z,16.40
2023-06-20T23:54:42.115Z,16.30
2023-06-20T23:57:19.659Z,17.40
2023-06-20T23:59:49.253Z,18.70
